sensor_id;sensor_type;location;lat;lon;timestamp;pressure;altitude;pressure_sealevel;temperature;humidity
6136;BME280;24008;42.664;23.372;2024-03-02T00:00:38;93727.16;;;4.24;99.78
6136;BME280;24008;42.664;23.372;2024-03-02T00:03:06;93731.88;;;4.38;100.00
6136;BME280;24008;42.664;23.372;2024-03-02T00:05:35;93603.28;;;3.53;100.00
6136;BME280;24008;42.664;23.372;2024-03-02T00:08:05;93644.66;;;3.83;100.00
6136;BME280;24008;42.664;23.372;2024-03-02T00:10:36;93900.03;;;5.25;100.00
6136;BME280;24008;42.664;23.372;2024-03-02T00:13:05;93755.25;;;4.61;99.87
6136;BME280;24008;42.664;23.372;2024-03-02T00:15:41;93760.72;;;4.56;100.00
6136;BME280;24008;42.664;23.372;2024-03-02T00:18:13;94177.84;;;7.27;100.00
6136;BME280;24008;42.664;23.372;2024-03-02T00:20:41;93908.34;;;5.56;100.00
6136;BME280;24008;42.664;23.372;2024-03-02T00:23:09;93975.47;;;6.02;100.00
6136;BME280;24008;42.664;23.372;2024-03-02T00:25:38;93599.16;;;3.52;99.88
6136;BME280;24008;42.664;23.372;2024-03-02T00:28:13;94167.28;;;7.31;99.91
6136;BME280;24008;42.664;23.372;2024-03-02T00:30:58;94168.22;;;7.30;99.88
6136;BME280;24008;42.664;23.372;2024-03-02T00:33:31;94169.28;;;7.28;100.00
6136;BME280;24008;42.664;23.372;2024-03-02T00:35:59;94052.19;;;6.63;100.00
6136;BME280;24008;42.664;23.372;2024-03-02T00:38:27;94015.31;;;6.49;100.00
6136;BME280;24008;42.664;23.372;2024-03-02T00:40:54;93752.78;;;4.80;99.55
6136;BME280;24008;42.664;23.372;2024-03-02T00:43:41;93742.66;;;4.70;99.14
6136;BME280;24008;42.664;23.372;2024-03-02T00:46:09;94048.97;;;6.61;99.12
6136;BME280;24008;42.664;23.372;2024-03-02T00:48:39;94153.75;;;7.31;99.09
6136;BME280;24008;42.664;23.372;2024-03-02T00:51:06;93965.97;;;5.94;98.43
6136;BME280;24008;42.664;23.372;2024-03-02T00:53:33;94144.94;;;7.35;98.79
6136;BME280;24008;42.664;23.372;2024-03-02T00:56:01;94077.81;;;6.70;97.88
6136;BME280;24008;42.664;23.372;2024-03-02T00:58:28;94148.53;;;7.42;97.20
6136;BME280;24008;42.664;23.372;2024-03-02T01:00:54;93959.03;;;6.06;96.07
6136;BME280;24008;42.664;23.372;2024-03-02T01:03:21;94143.28;;;7.53;95.67
6136;BME280;24008;42.664;23.372;2024-03-02T01:05:49;94109.34;;;7.35;95.89
6136;BME280;24008;42.664;23.372;2024-03-02T01:08:16;93728.53;;;4.87;95.36
6136;BME280;24008;42.664;23.372;2024-03-02T01:10:43;93729.81;;;4.53;95.86
6136;BME280;24008;42.664;23.372;2024-03-02T01:13:10;94025.97;;;6.72;95.85
6136;BME280;24008;42.664;23.372;2024-03-02T01:15:36;93847.75;;;5.15;95.91
6136;BME280;24008;42.664;23.372;2024-03-02T01:18:04;94037.19;;;6.89;95.72
6136;BME280;24008;42.664;23.372;2024-03-02T01:20:31;93741.75;;;5.00;95.77
6136;BME280;24008;42.664;23.372;2024-03-02T01:22:59;94003.53;;;6.68;96.13
6136;BME280;24008;42.664;23.372;2024-03-02T01:25:26;93890.28;;;5.99;96.53
6136;BME280;24008;42.664;23.372;2024-03-02T01:27:52;93605.50;;;4.17;97.22
6136;BME280;24008;42.664;23.372;2024-03-02T01:30:19;94094.50;;;7.30;97.21
6136;BME280;24008;42.664;23.372;2024-03-02T01:32:46;93982.28;;;6.59;97.79
6136;BME280;24008;42.664;23.372;2024-03-02T01:35:13;93689.63;;;4.69;97.73
6136;BME280;24008;42.664;23.372;2024-03-02T01:37:40;93711.34;;;4.81;98.24
6136;BME280;24008;42.664;23.372;2024-03-02T01:40:10;93773.13;;;5.19;99.20
6136;BME280;24008;42.664;23.372;2024-03-02T01:42:37;93702.28;;;4.69;99.46
6136;BME280;24008;42.664;23.372;2024-03-02T01:45:06;94019.56;;;6.59;99.97
6136;BME280;24008;42.664;23.372;2024-03-02T01:47:33;94040.28;;;6.64;99.79
6136;BME280;24008;42.664;23.372;2024-03-02T01:50:00;93696.00;;;4.63;99.95
6136;BME280;24008;42.664;23.372;2024-03-02T01:52:27;93782.34;;;4.70;100.00
6136;BME280;24008;42.664;23.372;2024-03-02T01:54:55;93971.22;;;6.12;100.00
6136;BME280;24008;42.664;23.372;2024-03-02T01:57:23;94113.91;;;7.21;100.00
6136;BME280;24008;42.664;23.372;2024-03-02T01:59:50;94054.84;;;6.81;100.00
6136;BME280;24008;42.664;23.372;2024-03-02T02:02:17;93641.59;;;3.89;100.00
6136;BME280;24008;42.664;23.372;2024-03-02T02:04:44;94119.41;;;7.17;100.00
6136;BME280;24008;42.664;23.372;2024-03-02T02:07:10;93905.88;;;5.75;100.00
6136;BME280;24008;42.664;23.372;2024-03-02T02:09:39;94118.22;;;7.11;100.00
6136;BME280;24008;42.664;23.372;2024-03-02T02:12:06;93978.56;;;6.15;100.00
6136;BME280;24008;42.664;23.372;2024-03-02T02:14:34;94115.00;;;7.09;100.00
6136;BME280;24008;42.664;23.372;2024-03-02T02:17:01;94130.50;;;7.06;100.00
6136;BME280;24008;42.664;23.372;2024-03-02T02:19:28;93645.81;;;4.09;100.00
6136;BME280;24008;42.664;23.372;2024-03-02T02:21:56;94107.91;;;7.03;100.00
6136;BME280;24008;42.664;23.372;2024-03-02T02:24:23;94001.53;;;6.33;100.00
6136;BME280;24008;42.664;23.372;2024-03-02T02:26:49;94105.66;;;7.00;100.00
6136;BME280;24008;42.664;23.372;2024-03-02T02:29:16;94104.84;;;7.00;100.00
6136;BME280;24008;42.664;23.372;2024-03-02T02:31:43;94159.78;;;7.01;100.00
6136;BME280;24008;42.664;23.372;2024-03-02T02:34:09;93644.34;;;4.07;100.00
6136;BME280;24008;42.664;23.372;2024-03-02T02:36:37;93703.25;;;4.38;100.00
6136;BME280;24008;42.664;23.372;2024-03-02T02:39:08;93689.28;;;4.33;100.00
6136;BME280;24008;42.664;23.372;2024-03-02T02:41:36;94032.41;;;6.57;100.00
6136;BME280;24008;42.664;23.372;2024-03-02T02:44:03;94139.34;;;7.12;100.00
6136;BME280;24008;42.664;23.372;2024-03-02T02:46:30;94101.06;;;7.13;100.00
6136;BME280;24008;42.664;23.372;2024-03-02T02:48:56;93664.63;;;4.35;100.00
6136;BME280;24008;42.664;23.372;2024-03-02T02:51:23;94103.22;;;7.18;100.00
6136;BME280;24008;42.664;23.372;2024-03-02T02:53:50;93672.78;;;4.49;100.00
6136;BME280;24008;42.664;23.372;2024-03-02T02:56:19;94071.66;;;7.01;100.00
6136;BME280;24008;42.664;23.372;2024-03-02T02:58:46;94112.16;;;7.32;100.00
6136;BME280;24008;42.664;23.372;2024-03-02T03:01:12;93741.06;;;5.08;100.00
6136;BME280;24008;42.664;23.372;2024-03-02T03:03:39;93632.84;;;4.33;100.00
6136;BME280;24008;42.664;23.372;2024-03-02T03:06:06;93963.44;;;6.42;100.00
6136;BME280;24008;42.664;23.372;2024-03-02T03:08:33;94015.69;;;6.74;100.00
6136;BME280;24008;42.664;23.372;2024-03-02T03:11:00;94035.44;;;6.80;100.00
6136;BME280;24008;42.664;23.372;2024-03-02T03:13:28;93976.28;;;6.41;100.00
6136;BME280;24008;42.664;23.372;2024-03-02T03:15:55;94096.94;;;7.12;100.00
6136;BME280;24008;42.664;23.372;2024-03-02T03:18:21;93585.16;;;3.79;100.00
6136;BME280;24008;42.664;23.372;2024-03-02T03:20:48;93949.53;;;5.79;100.00
6136;BME280;24008;42.664;23.372;2024-03-02T03:23:15;94038.53;;;6.55;100.00
6136;BME280;24008;42.664;23.372;2024-03-02T03:25:42;93935.75;;;5.82;100.00
6136;BME280;24008;42.664;23.372;2024-03-02T03:28:09;94113.66;;;7.05;100.00
6136;BME280;24008;42.664;23.372;2024-03-02T03:30:38;94068.22;;;6.73;100.00
6136;BME280;24008;42.664;23.372;2024-03-02T03:33:05;93835.78;;;5.26;100.00
6136;BME280;24008;42.664;23.372;2024-03-02T03:35:32;93790.06;;;4.78;100.00
6136;BME280;24008;42.664;23.372;2024-03-02T03:38:00;93737.53;;;4.61;100.00
6136;BME280;24008;42.664;23.372;2024-03-02T03:40:26;94171.72;;;7.00;100.00
6136;BME280;24008;42.664;23.372;2024-03-02T03:42:53;93958.66;;;6.01;100.00
6136;BME280;24008;42.664;23.372;2024-03-02T03:45:22;93735.91;;;4.50;100.00
6136;BME280;24008;42.664;23.372;2024-03-02T03:47:53;93573.53;;;3.57;100.00
6136;BME280;24008;42.664;23.372;2024-03-02T03:50:19;94107.53;;;6.98;100.00
6136;BME280;24008;42.664;23.372;2024-03-02T03:52:46;93661.38;;;4.14;100.00
6136;BME280;24008;42.664;23.372;2024-03-02T03:55:13;94165.03;;;6.99;100.00
6136;BME280;24008;42.664;23.372;2024-03-02T03:57:40;93962.91;;;6.10;100.00
6136;BME280;24008;42.664;23.372;2024-03-02T04:00:07;93788.94;;;5.01;100.00
6136;BME280;24008;42.664;23.372;2024-03-02T04:02:35;94081.31;;;6.88;100.00
6136;BME280;24008;42.664;23.372;2024-03-02T04:05:04;94105.09;;;7.06;100.00
6136;BME280;24008;42.664;23.372;2024-03-02T04:07:35;93682.38;;;4.45;100.00
6136;BME280;24008;42.664;23.372;2024-03-02T04:10:07;93998.59;;;6.47;100.00
6136;BME280;24008;42.664;23.372;2024-03-02T04:12:34;94047.25;;;6.62;100.00
6136;BME280;24008;42.664;23.372;2024-03-02T04:15:01;94045.22;;;6.84;100.00
6136;BME280;24008;42.664;23.372;2024-03-02T04:17:30;94100.16;;;7.24;100.00
6136;BME280;24008;42.664;23.372;2024-03-02T04:19:57;94095.06;;;7.24;100.00
6136;BME280;24008;42.664;23.372;2024-03-02T04:22:26;94015.28;;;6.69;100.00
6136;BME280;24008;42.664;23.372;2024-03-02T04:24:53;93640.53;;;4.31;100.00
6136;BME280;24008;42.664;23.372;2024-03-02T04:27:19;94101.72;;;7.35;100.00
6136;BME280;24008;42.664;23.372;2024-03-02T04:29:46;93676.69;;;4.62;100.00
6136;BME280;24008;42.664;23.372;2024-03-02T04:32:13;94013.28;;;6.72;100.00
6136;BME280;24008;42.664;23.372;2024-03-02T04:34:40;93536.34;;;3.69;100.00
6136;BME280;24008;42.664;23.372;2024-03-02T04:37:06;93959.31;;;6.32;100.00
6136;BME280;24008;42.664;23.372;2024-03-02T04:39:35;93598.84;;;4.16;100.00
6136;BME280;24008;42.664;23.372;2024-03-02T04:42:02;93871.03;;;5.87;100.00
6136;BME280;24008;42.664;23.372;2024-03-02T04:44:29;93653.88;;;4.43;100.00
6136;BME280;24008;42.664;23.372;2024-03-02T04:46:56;94017.56;;;6.72;100.00
6136;BME280;24008;42.664;23.372;2024-03-02T04:49:23;94118.56;;;7.26;100.00
6136;BME280;24008;42.664;23.372;2024-03-02T04:51:49;93684.00;;;4.46;100.00
6136;BME280;24008;42.664;23.372;2024-03-02T04:54:16;94118.47;;;7.08;100.00
6136;BME280;24008;42.664;23.372;2024-03-02T04:56:44;93904.13;;;5.66;100.00
6136;BME280;24008;42.664;23.372;2024-03-02T04:59:15;93714.41;;;4.35;100.00
6136;BME280;24008;42.664;23.372;2024-03-02T05:01:42;93421.91;;;2.58;100.00
6136;BME280;24008;42.664;23.372;2024-03-02T05:04:09;94121.53;;;7.02;100.00
6136;BME280;24008;42.664;23.372;2024-03-02T05:06:37;94137.47;;;6.95;100.00
6136;BME280;24008;42.664;23.372;2024-03-02T05:09:04;94069.00;;;6.55;100.00
6136;BME280;24008;42.664;23.372;2024-03-02T05:11:31;94042.69;;;6.36;100.00
6136;BME280;24008;42.664;23.372;2024-03-02T05:14:19;93776.16;;;4.63;100.00
6136;BME280;24008;42.664;23.372;2024-03-02T05:16:46;94128.63;;;6.79;100.00
6136;BME280;24008;42.664;23.372;2024-03-02T05:19:13;94044.91;;;6.20;100.00
6136;BME280;24008;42.664;23.372;2024-03-02T05:21:40;93759.03;;;4.06;100.00
6136;BME280;24008;42.664;23.372;2024-03-02T05:24:07;94142.66;;;6.74;100.00
6136;BME280;24008;42.664;23.372;2024-03-02T05:26:33;94139.72;;;6.69;100.00
6136;BME280;24008;42.664;23.372;2024-03-02T05:29:00;94147.06;;;6.72;100.00
6136;BME280;24008;42.664;23.372;2024-03-02T05:31:29;94062.66;;;6.01;100.00
6136;BME280;24008;42.664;23.372;2024-03-02T05:33:56;93887.47;;;5.14;100.00
6136;BME280;24008;42.664;23.372;2024-03-02T05:36:23;93964.13;;;5.56;100.00
6136;BME280;24008;42.664;23.372;2024-03-02T05:38:50;93744.16;;;4.12;100.00
6136;BME280;24008;42.664;23.372;2024-03-02T05:41:17;94052.63;;;5.99;100.00
6136;BME280;24008;42.664;23.372;2024-03-02T05:43:43;94150.78;;;6.68;100.00
6136;BME280;24008;42.664;23.372;2024-03-02T05:46:10;94067.47;;;6.13;100.00
6136;BME280;24008;42.664;23.372;2024-03-02T05:48:38;94161.25;;;6.74;100.00
6136;BME280;24008;42.664;23.372;2024-03-02T05:51:05;93774.59;;;4.31;100.00
6136;BME280;24008;42.664;23.372;2024-03-02T05:53:32;93914.53;;;5.14;100.00
6136;BME280;24008;42.664;23.372;2024-03-02T05:55:59;94132.31;;;6.46;100.00
6136;BME280;24008;42.664;23.372;2024-03-02T05:58:25;94164.41;;;6.67;100.00
6136;BME280;24008;42.664;23.372;2024-03-02T06:01:03;94026.75;;;5.35;100.00
6136;BME280;24008;42.664;23.372;2024-03-02T06:03:30;93982.75;;;5.46;100.00
6136;BME280;24008;42.664;23.372;2024-03-02T06:05:58;93605.19;;;3.10;100.00
6136;BME280;24008;42.664;23.372;2024-03-02T06:08:25;93851.16;;;4.64;100.00
6136;BME280;24008;42.664;23.372;2024-03-02T06:10:51;94107.56;;;6.29;100.00
6136;BME280;24008;42.664;23.372;2024-03-02T06:13:18;94160.44;;;6.74;100.00
6136;BME280;24008;42.664;23.372;2024-03-02T06:15:45;94096.47;;;6.30;100.00
6136;BME280;24008;42.664;23.372;2024-03-02T06:18:11;94169.25;;;6.70;100.00
6136;BME280;24008;42.664;23.372;2024-03-02T06:20:38;94096.47;;;6.30;100.00
6136;BME280;24008;42.664;23.372;2024-03-02T06:23:06;94063.03;;;6.06;100.00
6136;BME280;24008;42.664;23.372;2024-03-02T06:25:32;94036.25;;;5.83;100.00
6136;BME280;24008;42.664;23.372;2024-03-02T06:27:59;94173.53;;;6.69;100.00
6136;BME280;24008;42.664;23.372;2024-03-02T06:30:26;94175.63;;;6.64;100.00
6136;BME280;24008;42.664;23.372;2024-03-02T06:32:52;94045.88;;;5.79;100.00
6136;BME280;24008;42.664;23.372;2024-03-02T06:35:19;94175.13;;;6.61;100.00
6136;BME280;24008;42.664;23.372;2024-03-02T06:37:46;94177.78;;;6.59;100.00
6136;BME280;24008;42.664;23.372;2024-03-02T06:40:14;94173.75;;;6.57;100.00
6136;BME280;24008;42.664;23.372;2024-03-02T06:42:41;94185.78;;;6.55;100.00
6136;BME280;24008;42.664;23.372;2024-03-02T06:45:07;94194.44;;;6.52;100.00
6136;BME280;24008;42.664;23.372;2024-03-02T06:47:34;93962.13;;;5.20;100.00
6136;BME280;24008;42.664;23.372;2024-03-02T06:50:01;94183.91;;;6.57;100.00
6136;BME280;24008;42.664;23.372;2024-03-02T06:52:27;94157.13;;;6.33;100.00
6136;BME280;24008;42.664;23.372;2024-03-02T06:54:54;94045.31;;;5.75;100.00
6136;BME280;24008;42.664;23.372;2024-03-02T06:57:22;94182.19;;;6.67;100.00
6136;BME280;24008;42.664;23.372;2024-03-02T06:59:50;93944.00;;;5.15;100.00
6136;BME280;24008;42.664;23.372;2024-03-02T07:02:19;94155.03;;;6.48;100.00
6136;BME280;24008;42.664;23.372;2024-03-02T07:04:46;94118.63;;;6.28;100.00
6136;BME280;24008;42.664;23.372;2024-03-02T07:07:12;94124.00;;;6.25;100.00
6136;BME280;24008;42.664;23.372;2024-03-02T07:09:39;94099.13;;;6.19;100.00
6136;BME280;24008;42.664;23.372;2024-03-02T07:12:06;94194.78;;;6.78;100.00
6136;BME280;24008;42.664;23.372;2024-03-02T07:14:34;94185.28;;;6.70;100.00
6136;BME280;24008;42.664;23.372;2024-03-02T07:17:17;94205.34;;;6.73;100.00
6136;BME280;24008;42.664;23.372;2024-03-02T07:19:44;94192.22;;;6.68;100.00
6136;BME280;24008;42.664;23.372;2024-03-02T07:22:11;94180.81;;;6.53;100.00
6136;BME280;24008;42.664;23.372;2024-03-02T07:24:41;94138.44;;;6.34;100.00
6136;BME280;24008;42.664;23.372;2024-03-02T07:27:08;94201.06;;;6.74;100.00
6136;BME280;24008;42.664;23.372;2024-03-02T07:29:37;94204.41;;;6.74;100.00
6136;BME280;24008;42.664;23.372;2024-03-02T07:32:04;94216.31;;;6.74;100.00
6136;BME280;24008;42.664;23.372;2024-03-02T07:34:31;94174.41;;;6.49;100.00
6136;BME280;24008;42.664;23.372;2024-03-02T07:36:57;94111.69;;;6.21;100.00
6136;BME280;24008;42.664;23.372;2024-03-02T07:39:23;94219.00;;;6.82;100.00
6136;BME280;24008;42.664;23.372;2024-03-02T07:41:50;94211.63;;;6.79;100.00
6136;BME280;24008;42.664;23.372;2024-03-02T07:44:17;94163.03;;;6.43;100.00
6136;BME280;24008;42.664;23.372;2024-03-02T07:46:46;94121.72;;;6.22;100.00
6136;BME280;24008;42.664;23.372;2024-03-02T07:49:13;94210.94;;;6.77;100.00
6136;BME280;24008;42.664;23.372;2024-03-02T07:51:40;93863.53;;;4.57;100.00
6136;BME280;24008;42.664;23.372;2024-03-02T07:54:06;94202.94;;;6.72;100.00
6136;BME280;24008;42.664;23.372;2024-03-02T07:56:33;94018.00;;;5.49;100.00
6136;BME280;24008;42.664;23.372;2024-03-02T07:59:00;94203.28;;;6.58;100.00
6136;BME280;24008;42.664;23.372;2024-03-02T08:01:27;94137.38;;;6.27;100.00
6136;BME280;24008;42.664;23.372;2024-03-02T08:03:56;94218.03;;;6.73;100.00
6136;BME280;24008;42.664;23.372;2024-03-02T08:06:24;94219.53;;;6.76;100.00
6136;BME280;24008;42.664;23.372;2024-03-02T08:08:53;94217.50;;;6.79;100.00
6136;BME280;24008;42.664;23.372;2024-03-02T08:11:20;94223.28;;;6.81;100.00
6136;BME280;24008;42.664;23.372;2024-03-02T08:13:46;94106.59;;;6.11;100.00
6136;BME280;24008;42.664;23.372;2024-03-02T08:16:13;94227.31;;;6.94;100.00
6136;BME280;24008;42.664;23.372;2024-03-02T08:18:41;94224.38;;;6.98;100.00
6136;BME280;24008;42.664;23.372;2024-03-02T08:21:09;93889.63;;;4.88;100.00
6136;BME280;24008;42.664;23.372;2024-03-02T08:23:36;93840.13;;;4.65;100.00
6136;BME280;24008;42.664;23.372;2024-03-02T08:26:03;94151.06;;;6.65;100.00
6136;BME280;24008;42.664;23.372;2024-03-02T08:28:30;94225.47;;;7.15;100.00
6136;BME280;24008;42.664;23.372;2024-03-02T08:30:57;94164.59;;;6.75;100.00
6136;BME280;24008;42.664;23.372;2024-03-02T08:33:24;94049.69;;;6.04;100.00
6136;BME280;24008;42.664;23.372;2024-03-02T08:35:51;94222.41;;;7.21;100.00
6136;BME280;24008;42.664;23.372;2024-03-02T08:38:19;94222.78;;;7.16;100.00
6136;BME280;24008;42.664;23.372;2024-03-02T08:40:46;94226.41;;;7.23;100.00
6136;BME280;24008;42.664;23.372;2024-03-02T08:43:13;94225.75;;;7.31;100.00
6136;BME280;24008;42.664;23.372;2024-03-02T08:45:40;94230.81;;;7.41;100.00
6136;BME280;24008;42.664;23.372;2024-03-02T08:48:08;94021.81;;;6.13;100.00
6136;BME280;24008;42.664;23.372;2024-03-02T08:50:35;94050.97;;;6.38;100.00
6136;BME280;24008;42.664;23.372;2024-03-02T08:53:05;94102.72;;;6.76;100.00
6136;BME280;24008;42.664;23.372;2024-03-02T08:55:33;94219.97;;;7.77;100.00
6136;BME280;24008;42.664;23.372;2024-03-02T08:58:00;93787.22;;;5.12;100.00
6136;BME280;24008;42.664;23.372;2024-03-02T09:00:27;94238.59;;;7.68;100.00
6136;BME280;24008;42.664;23.372;2024-03-02T09:02:54;94225.13;;;8.05;100.00
6136;BME280;24008;42.664;23.372;2024-03-02T09:05:21;94224.84;;;8.17;100.00
6136;BME280;24008;42.664;23.372;2024-03-02T09:07:47;94223.22;;;8.16;100.00
6136;BME280;24008;42.664;23.372;2024-03-02T09:10:14;94156.75;;;7.82;100.00
6136;BME280;24008;42.664;23.372;2024-03-02T09:12:43;94227.47;;;8.35;100.00
6136;BME280;24008;42.664;23.372;2024-03-02T09:15:09;94238.72;;;8.42;100.00
6136;BME280;24008;42.664;23.372;2024-03-02T09:17:36;94146.72;;;7.81;100.00
6136;BME280;24008;42.664;23.372;2024-03-02T09:20:03;94156.47;;;7.95;100.00
6136;BME280;24008;42.664;23.372;2024-03-02T09:22:30;94129.31;;;7.76;100.00
6136;BME280;24008;42.664;23.372;2024-03-02T09:24:57;94242.31;;;8.49;100.00
6136;BME280;24008;42.664;23.372;2024-03-02T09:27:24;94221.22;;;8.20;100.00
6136;BME280;24008;42.664;23.372;2024-03-02T09:29:52;94190.72;;;8.01;100.00
6136;BME280;24008;42.664;23.372;2024-03-02T09:32:19;94243.28;;;8.39;100.00
6136;BME280;24008;42.664;23.372;2024-03-02T09:34:45;94241.78;;;8.46;100.00
6136;BME280;24008;42.664;23.372;2024-03-02T09:37:13;94017.63;;;7.09;100.00
6136;BME280;24008;42.664;23.372;2024-03-02T09:39:43;94196.13;;;8.25;100.00
6136;BME280;24008;42.664;23.372;2024-03-02T09:42:10;94166.78;;;7.93;100.00
6136;BME280;24008;42.664;23.372;2024-03-02T09:44:38;94251.38;;;8.61;100.00
6136;BME280;24008;42.664;23.372;2024-03-02T09:47:07;94071.06;;;7.46;100.00
6136;BME280;24008;42.664;23.372;2024-03-02T09:49:34;94251.00;;;8.56;100.00
6136;BME280;24008;42.664;23.372;2024-03-02T09:52:03;94123.47;;;7.66;100.00
6136;BME280;24008;42.664;23.372;2024-03-02T09:54:31;94060.69;;;7.20;100.00
6136;BME280;24008;42.664;23.372;2024-03-02T09:57:00;94092.56;;;7.51;100.00
6136;BME280;24008;42.664;23.372;2024-03-02T09:59:27;94213.34;;;8.04;100.00
6136;BME280;24008;42.664;23.372;2024-03-02T10:01:58;94068.38;;;7.38;100.00
6136;BME280;24008;42.664;23.372;2024-03-02T10:04:27;94050.09;;;7.24;100.00
6136;BME280;24008;42.664;23.372;2024-03-02T10:07:11;93843.16;;;5.77;100.00
6136;BME280;24008;42.664;23.372;2024-03-02T10:09:39;94226.84;;;8.60;100.00
6136;BME280;24008;42.664;23.372;2024-03-02T10:12:07;94177.81;;;8.12;100.00
6136;BME280;24008;42.664;23.372;2024-03-02T10:14:34;94028.00;;;7.35;100.00
6136;BME280;24008;42.664;23.372;2024-03-02T10:17:03;93906.09;;;6.69;100.00
6136;BME280;24008;42.664;23.372;2024-03-02T10:19:31;93728.81;;;5.61;100.00
6136;BME280;24008;42.664;23.372;2024-03-02T10:22:01;94153.63;;;8.35;100.00
6136;BME280;24008;42.664;23.372;2024-03-02T10:24:35;94126.78;;;8.13;100.00
6136;BME280;24008;42.664;23.372;2024-03-02T10:27:07;94241.38;;;8.78;100.00
6136;BME280;24008;42.664;23.372;2024-03-02T10:29:37;94241.66;;;8.75;100.00
6136;BME280;24008;42.664;23.372;2024-03-02T10:32:04;94072.88;;;7.63;100.00
6136;BME280;24008;42.664;23.372;2024-03-02T10:34:34;94244.63;;;8.70;100.00
6136;BME280;24008;42.664;23.372;2024-03-02T10:37:02;94183.66;;;8.22;100.00
6136;BME280;24008;42.664;23.372;2024-03-02T10:39:30;94038.63;;;7.11;100.00
6136;BME280;24008;42.664;23.372;2024-03-02T10:41:58;94180.59;;;8.28;100.00
6136;BME280;24008;42.664;23.372;2024-03-02T10:44:25;94152.81;;;7.97;100.00
6136;BME280;24008;42.664;23.372;2024-03-02T10:46:53;94196.66;;;8.38;100.00
6136;BME280;24008;42.664;23.372;2024-03-02T10:49:23;94145.03;;;8.09;100.00
6136;BME280;24008;42.664;23.372;2024-03-02T10:51:52;93975.78;;;7.03;100.00
6136;BME280;24008;42.664;23.372;2024-03-02T10:54:18;94017.19;;;7.33;100.00
6136;BME280;24008;42.664;23.372;2024-03-02T10:56:52;94228.16;;;8.64;100.00
6136;BME280;24008;42.664;23.372;2024-03-02T10:59:26;94226.56;;;8.63;100.00
6136;BME280;24008;42.664;23.372;2024-03-02T11:01:55;94237.16;;;8.59;100.00
6136;BME280;24008;42.664;23.372;2024-03-02T11:04:24;94170.25;;;8.29;100.00
6136;BME280;24008;42.664;23.372;2024-03-02T11:06:58;94196.25;;;8.43;100.00
6136;BME280;24008;42.664;23.372;2024-03-02T11:09:27;94211.34;;;8.54;100.00
6136;BME280;24008;42.664;23.372;2024-03-02T11:12:00;94162.63;;;8.29;100.00
6136;BME280;24008;42.664;23.372;2024-03-02T11:14:30;94225.97;;;8.70;100.00
6136;BME280;24008;42.664;23.372;2024-03-02T11:16:58;94188.16;;;8.47;100.00
6136;BME280;24008;42.664;23.372;2024-03-02T11:19:27;94189.50;;;8.51;100.00
6136;BME280;24008;42.664;23.372;2024-03-02T11:21:56;94223.88;;;8.65;100.00
6136;BME280;24008;42.664;23.372;2024-03-02T11:24:32;94241.28;;;8.70;100.00
6136;BME280;24008;42.664;23.372;2024-03-02T11:27:00;94219.25;;;8.78;100.00
6136;BME280;24008;42.664;23.372;2024-03-02T11:29:46;94210.38;;;8.82;100.00
6136;BME280;24008;42.664;23.372;2024-03-02T11:32:19;94213.88;;;8.81;100.00
6136;BME280;24008;42.664;23.372;2024-03-02T11:34:48;94156.84;;;8.37;100.00
6136;BME280;24008;42.664;23.372;2024-03-02T11:37:18;94148.53;;;8.35;100.00
6136;BME280;24008;42.664;23.372;2024-03-02T11:39:46;94195.72;;;8.66;100.00
6136;BME280;24008;42.664;23.372;2024-03-02T11:42:14;94249.31;;;8.75;100.00
6136;BME280;24008;42.664;23.372;2024-03-02T11:44:43;94216.03;;;8.76;100.00
6136;BME280;24008;42.664;23.372;2024-03-02T11:47:13;94095.75;;;8.00;100.00
6136;BME280;24008;42.664;23.372;2024-03-02T11:49:41;94167.03;;;8.37;100.00
6136;BME280;24008;42.664;23.372;2024-03-02T11:52:09;94222.41;;;8.62;100.00
6136;BME280;24008;42.664;23.372;2024-03-02T11:54:39;94191.28;;;8.41;100.00
6136;BME280;24008;42.664;23.372;2024-03-02T11:57:07;93934.94;;;6.87;100.00
6136;BME280;24008;42.664;23.372;2024-03-02T11:59:34;94224.41;;;8.69;100.00
6136;BME280;24008;42.664;23.372;2024-03-02T12:02:01;94089.69;;;7.83;100.00
6136;BME280;24008;42.664;23.372;2024-03-02T12:04:29;94211.81;;;8.67;100.00
6136;BME280;24008;42.664;23.372;2024-03-02T12:06:57;94156.19;;;8.35;100.00
6136;BME280;24008;42.664;23.372;2024-03-02T12:09:26;94210.41;;;8.73;100.00
6136;BME280;24008;42.664;23.372;2024-03-02T12:12:04;94175.91;;;8.60;100.00
6136;BME280;24008;42.664;23.372;2024-03-02T12:14:32;94129.63;;;8.38;100.00
6136;BME280;24008;42.664;23.372;2024-03-02T12:16:59;94219.06;;;9.07;100.00
6136;BME280;24008;42.664;23.372;2024-03-02T12:19:26;94221.78;;;9.06;100.00
6136;BME280;24008;42.664;23.372;2024-03-02T12:21:55;94182.19;;;8.84;100.00
6136;BME280;24008;42.664;23.372;2024-03-02T12:24:22;94215.28;;;9.11;100.00
6136;BME280;24008;42.664;23.372;2024-03-02T12:26:49;94212.47;;;9.14;100.00
6136;BME280;24008;42.664;23.372;2024-03-02T12:29:18;94214.06;;;9.15;100.00
6136;BME280;24008;42.664;23.372;2024-03-02T12:31:45;94213.13;;;9.16;100.00
6136;BME280;24008;42.664;23.372;2024-03-02T12:34:12;94219.53;;;9.20;100.00
6136;BME280;24008;42.664;23.372;2024-03-02T12:36:40;94211.22;;;9.18;99.71
6136;BME280;24008;42.664;23.372;2024-03-02T12:39:07;94208.84;;;9.17;99.00
6136;BME280;24008;42.664;23.372;2024-03-02T12:41:36;94210.13;;;9.21;99.28
6136;BME280;24008;42.664;23.372;2024-03-02T12:44:04;94227.47;;;9.17;98.91
6136;BME280;24008;42.664;23.372;2024-03-02T12:46:32;94158.38;;;8.75;99.32
6136;BME280;24008;42.664;23.372;2024-03-02T12:49:07;94006.56;;;8.02;100.00
6136;BME280;24008;42.664;23.372;2024-03-02T12:51:35;93709.47;;;6.26;99.15
6136;BME280;24008;42.664;23.372;2024-03-02T12:54:02;93991.94;;;8.04;99.07
6136;BME280;24008;42.664;23.372;2024-03-02T12:56:31;93997.22;;;8.20;98.25
6136;BME280;24008;42.664;23.372;2024-03-02T12:58:58;93872.63;;;7.20;96.89
6136;BME280;24008;42.664;23.372;2024-03-02T13:01:26;94223.69;;;9.74;96.17
6136;BME280;24008;42.664;23.372;2024-03-02T13:03:54;94224.25;;;9.68;94.21
6136;BME280;24008;42.664;23.372;2024-03-02T13:06:22;94224.75;;;9.72;93.76